createdAt,value
2023-01-01T00:00:27.345Z,18.00
2023-01-01T00:04:32.590Z,16.53
2023-01-01T00:08:35.971Z,14.63
2023-01-01T00:12:38.661Z,14.63
2023-01-01T00:16:41.538Z,17.23
2023-01-01T00:20:45.636Z,16.77
2023-01-01T00:24:48.356Z,17.70
2023-01-01T00:28:51.047Z,20.07
2023-01-01T00:32:54.477Z,21.60
2023-01-01T00:37:00.155Z,16.97
2023-01-01T00:41:03.404Z,16.70
2023-01-01T00:45:07.363Z,17.43
2023-01-01T00:49:10.038Z,18.07
2023-01-01T00:53:14.810Z,16.23
2023-01-01T00:57:17.491Z,18.27
2023-01-01T01:01:20.271Z,17.97
2023-01-01T01:05:23.024Z,17.60
2023-01-01T01:09:27.417Z,17.60
2023-01-01T01:13:30.074Z,19.33
2023-01-01T01:17:32.856Z,19.13
2023-01-01T01:21:35.874Z,18.00
2023-01-01T01:25:39.894Z,21.17
2023-01-01T01:29:42.563Z,20.23
2023-01-01T01:33:45.618Z,24.17
2023-01-01T01:37:48.515Z,19.87
2023-01-01T01:41:52.567Z,19.03
2023-01-01T01:45:57.079Z,18.83
2023-01-01T01:50:05.219Z,19.47
2023-01-01T01:54:11.883Z,16.30
2023-01-01T01:58:17.026Z,16.37
2023-01-01T02:02:23.478Z,15.90
2023-01-01T02:06:26.704Z,19.53
2023-01-01T02:10:29.834Z,16.33
2023-01-01T02:14:34.312Z,14.27
2023-01-01T02:18:42.325Z,15.97
2023-01-01T02:22:57.870Z,13.67
2023-01-01T02:27:05.597Z,15.10
2023-01-01T02:31:11.762Z,13.13
2023-01-01T02:35:34.532Z,14.90
2023-01-01T02:39:39.926Z,11.67
2023-01-01T02:43:43.622Z,12.87
2023-01-01T02:47:47.632Z,13.23
2023-01-01T02:52:00.424Z,13.80
2023-01-01T02:56:07.970Z,15.77
2023-01-01T03:00:28.005Z,15.00
2023-01-01T03:04:36.568Z,13.57
2023-01-01T03:08:45.054Z,14.43
2023-01-01T03:12:55.064Z,14.03
2023-01-01T03:17:00.334Z,15.03
2023-01-01T03:21:06.621Z,13.23
2023-01-01T03:25:11.375Z,13.33
2023-01-01T03:29:14.392Z,13.07
2023-01-01T03:33:20.529Z,13.00
2023-01-01T03:37:27.019Z,11.47
2023-01-01T03:41:35.971Z,10.20
2023-01-01T03:45:40.610Z,10.03
2023-01-01T03:49:44.325Z,12.50
2023-01-01T03:53:48.768Z,13.20
2023-01-01T03:57:57.464Z,10.57
2023-01-01T04:02:02.060Z,8.40
2023-01-01T04:06:05.641Z,9.40
2023-01-01T04:10:18.195Z,9.47
2023-01-01T04:14:29.167Z,8.97
2023-01-01T04:18:31.950Z,9.80
2023-01-01T04:22:34.929Z,8.80
2023-01-01T04:26:38.996Z,8.93
2023-01-01T04:34:43.260Z,8.30
2023-01-01T04:38:46.004Z,9.03
2023-01-01T04:42:50.261Z,8.70
2023-01-01T04:46:56.919Z,9.37
2023-01-01T04:51:04.890Z,8.43
2023-01-01T04:55:08.444Z,8.67
2023-01-01T04:59:13.044Z,8.17
2023-01-01T05:03:15.977Z,10.03
2023-01-01T05:07:18.916Z,7.97
2023-01-01T05:11:23.828Z,8.23
2023-01-01T05:15:28.152Z,8.67
2023-01-01T05:19:30.864Z,7.97
2023-01-01T05:23:34.125Z,17.90
2023-01-01T05:27:36.854Z,9.63
2023-01-01T05:31:41.237Z,8.47
2023-01-01T05:35:44.177Z,8.40
2023-01-01T05:39:47.632Z,7.13
2023-01-01T05:43:50.940Z,7.40
2023-01-01T05:47:56.499Z,6.13
2023-01-01T05:51:59.170Z,5.90
2023-01-01T05:56:02.307Z,5.30
2023-01-01T06:00:05.916Z,6.63
2023-01-01T06:04:10.037Z,5.93
2023-01-01T06:08:13.267Z,6.70
2023-01-01T06:12:16.137Z,4.93
2023-01-01T06:16:18.872Z,6.63
2023-01-01T06:20:22.901Z,6.27
2023-01-01T06:24:25.870Z,5.77
2023-01-01T06:28:28.885Z,6.17
2023-01-01T06:32:31.599Z,6.47
2023-01-01T06:36:35.693Z,6.30
2023-01-01T06:40:38.300Z,5.30
2023-01-01T06:44:41.298Z,6.30
2023-01-01T06:48:44.824Z,6.00
2023-01-01T06:52:49.405Z,6.20
2023-01-01T06:56:52.282Z,5.83
2023-01-01T07:00:55.046Z,5.80
2023-01-01T07:04:57.844Z,6.87
2023-01-01T07:09:02.752Z,6.23
2023-01-01T07:13:05.402Z,7.03
2023-01-01T07:17:08.203Z,6.67
2023-01-01T07:21:29.601Z,6.63
2023-01-01T07:25:34.351Z,5.07
2023-01-01T07:29:37.118Z,4.43
2023-01-01T07:33:40.085Z,6.27
2023-01-01T07:37:43.067Z,5.67
2023-01-01T07:41:47.397Z,6.77
2023-01-01T07:45:50.151Z,6.07
2023-01-01T07:49:53.562Z,5.97
2023-01-01T07:54:00.625Z,8.47
2023-01-01T07:58:08.457Z,13.90
2023-01-01T08:02:12.847Z,7.33
2023-01-01T08:06:15.646Z,6.17
2023-01-01T08:10:20.059Z,7.57
2023-01-01T08:14:24.705Z,7.20
2023-01-01T08:18:27.580Z,7.97
2023-01-01T08:22:30.274Z,10.07
2023-01-01T08:26:34.691Z,7.90
2023-01-01T08:30:38.960Z,8.03
2023-01-01T08:34:41.745Z,7.07
2023-01-01T08:38:44.689Z,8.00
2023-01-01T08:42:47.590Z,8.63
2023-01-01T08:46:54.896Z,7.73
2023-01-01T08:51:00.177Z,6.97
2023-01-01T08:55:02.890Z,7.57
2023-01-01T08:59:06.114Z,8.73
2023-01-01T09:03:10.552Z,8.60
2023-01-01T09:07:13.550Z,9.67
2023-01-01T09:11:22.677Z,10.27
2023-01-01T09:15:25.417Z,8.97
2023-01-01T09:19:30.674Z,7.47
2023-01-01T09:23:33.352Z,8.47
2023-01-01T09:27:36.086Z,8.13
2023-01-01T09:31:38.882Z,7.97
2023-01-01T09:35:44.434Z,7.03
2023-01-01T09:39:47.838Z,7.70
2023-01-01T09:43:55.849Z,6.57
2023-01-01T09:48:01.350Z,8.47
2023-01-01T09:52:05.680Z,6.03
2023-01-01T09:56:14.216Z,8.17
2023-01-01T10:00:18.671Z,6.50
2023-01-01T10:04:34.837Z,7.73
2023-01-01T10:09:00.365Z,6.40
2023-01-01T10:13:11.807Z,6.47
2023-01-01T10:17:18.564Z,8.07
2023-01-01T10:21:24.215Z,9.23
2023-01-01T10:25:29.374Z,5.23
2023-01-01T10:29:38.193Z,5.20
2023-01-01T10:33:41.332Z,6.17
2023-01-01T10:37:44.553Z,5.20
2023-01-01T10:41:48.868Z,6.17
2023-01-01T10:45:54.909Z,7.00
2023-01-01T10:49:59.552Z,6.93
2023-01-01T10:54:02.504Z,5.47
2023-01-01T10:58:26.995Z,5.73
2023-01-01T11:02:30.783Z,5.57
2023-01-01T11:06:35.475Z,4.77
2023-01-01T11:10:38.190Z,5.13
2023-01-01T11:14:44.531Z,4.87
2023-01-01T11:18:48.065Z,5.93
2023-01-01T11:22:52.767Z,5.20
2023-01-01T11:27:13.811Z,5.40
2023-01-01T11:31:20.467Z,5.80
2023-01-01T11:35:24.902Z,6.50
2023-01-01T11:39:27.985Z,5.70
2023-01-01T11:43:36.482Z,6.47
2023-01-01T11:47:42.111Z,3.80
2023-01-01T11:51:45.095Z,5.77
2023-01-01T11:55:50.977Z,4.60
2023-01-01T11:59:58.864Z,6.20
2023-01-01T12:04:06.389Z,6.53
2023-01-01T12:08:11.108Z,6.03
2023-01-01T12:12:18.865Z,9.50
2023-01-01T12:16:23.851Z,5.37
2023-01-01T12:20:29.915Z,3.97
2023-01-01T12:24:34.584Z,4.77
2023-01-01T12:28:41.943Z,3.70
2023-01-01T12:33:08.425Z,5.97
2023-01-01T12:37:18.566Z,4.97
2023-01-01T12:41:27.741Z,6.47
2023-01-01T12:45:57.948Z,7.33
2023-01-01T12:50:10.577Z,5.40
2023-01-01T12:54:44.698Z,10.17
2023-01-01T12:58:51.774Z,5.83
2023-01-01T13:02:59.110Z,5.80
2023-01-01T13:07:05.655Z,4.93
2023-01-01T13:11:10.825Z,7.80
2023-01-01T13:15:48.572Z,5.37
2023-01-01T13:19:57.182Z,3.97
2023-01-01T13:24:05.009Z,6.70
2023-01-01T13:28:14.258Z,5.87
2023-01-01T13:32:17.407Z,8.57
2023-01-01T13:36:32.605Z,7.83
2023-01-01T13:40:52.896Z,7.37
2023-01-01T13:44:57.301Z,4.60
2023-01-01T13:49:19.871Z,3.90
2023-01-01T13:53:38.068Z,5.07
2023-01-01T13:58:15.552Z,4.67
2023-01-01T14:02:24.101Z,6.70
2023-01-01T14:06:30.437Z,6.10
2023-01-01T14:10:35.109Z,5.20
2023-01-01T14:14:38.437Z,5.50
2023-01-01T14:18:43.871Z,4.67
2023-01-01T14:22:46.740Z,3.70
2023-01-01T14:26:49.670Z,5.60
2023-01-01T14:30:53.287Z,5.10
2023-01-01T14:35:03.598Z,3.87
2023-01-01T14:39:27.807Z,4.20
2023-01-01T14:43:31.224Z,4.20
2023-01-01T14:47:39.086Z,8.10
2023-01-01T14:51:46.300Z,5.33
2023-01-01T14:55:50.053Z,5.67
2023-01-01T14:59:54.538Z,5.93
2023-01-01T15:04:10.322Z,3.77
2023-01-01T15:08:25.614Z,4.47
2023-01-01T15:12:29.159Z,6.23
2023-01-01T15:16:38.073Z,5.00
2023-01-01T15:20:43.559Z,6.10
2023-01-01T15:24:47.628Z,7.00
2023-01-01T15:28:50.415Z,7.60
2023-01-01T15:32:53.922Z,8.87
2023-01-01T15:36:58.055Z,8.30
2023-01-01T15:41:02.728Z,6.97
2023-01-01T15:45:24.329Z,5.97
2023-01-01T15:49:28.214Z,4.63
2023-01-01T15:53:32.814Z,4.50
2023-01-01T15:57:38.032Z,5.87
2023-01-01T16:01:42.486Z,7.67
2023-01-01T16:05:47.996Z,7.37
2023-01-01T16:09:57.037Z,6.10
2023-01-01T16:14:02.998Z,14.37
2023-01-01T16:18:05.856Z,7.87
2023-01-01T16:22:08.610Z,9.20
2023-01-01T16:26:11.377Z,5.40
2023-01-01T16:30:19.039Z,4.77
2023-01-01T16:34:21.753Z,7.73
2023-01-01T16:38:24.496Z,7.07
2023-01-01T16:42:27.354Z,7.17
2023-01-01T16:46:33.489Z,6.50
2023-01-01T16:50:36.353Z,10.93
2023-01-01T16:54:40.161Z,8.90
2023-01-01T16:58:53.251Z,10.70
2023-01-01T17:03:02.387Z,10.60
2023-01-01T17:07:05.165Z,12.70
2023-01-01T17:11:10.901Z,12.40
2023-01-01T17:15:13.679Z,10.93
2023-01-01T17:19:18.180Z,12.90
2023-01-01T17:23:20.991Z,15.67
2023-01-01T17:27:23.882Z,13.77
2023-01-01T17:31:26.608Z,15.20
2023-01-01T17:35:33.320Z,15.37
2023-01-01T17:39:36.219Z,14.93
2023-01-01T17:43:40.266Z,16.63
2023-01-01T17:47:43.046Z,15.33
2023-01-01T17:51:47.389Z,15.93
2023-01-01T17:55:50.191Z,16.23
2023-01-01T17:59:58.809Z,12.23
2023-01-01T18:04:03.194Z,15.20
2023-01-01T18:08:07.887Z,12.53
2023-01-01T18:12:10.586Z,18.33
2023-01-01T18:16:13.444Z,14.60
2023-01-01T18:20:17.860Z,11.50
2023-01-01T18:24:21.912Z,11.13
2023-01-01T18:28:24.675Z,13.63
2023-01-01T18:32:27.485Z,13.07
2023-01-01T18:36:31.716Z,16.27
2023-01-01T18:40:37.574Z,12.73
2023-01-01T18:44:41.308Z,13.07
2023-01-01T18:48:44.321Z,14.07
2023-01-01T18:52:47.842Z,12.33
2023-01-01T18:57:00.545Z,16.63
2023-01-01T19:01:03.411Z,14.70
2023-01-01T19:05:18.139Z,12.23
2023-01-01T19:09:23.218Z,20.57
2023-01-01T19:13:30.951Z,18.40
2023-01-01T19:17:33.889Z,15.20
2023-01-01T19:21:36.852Z,15.80
2023-01-01T19:25:40.952Z,14.60
2023-01-01T19:29:46.729Z,13.87
2023-01-01T19:33:50.011Z,17.00
2023-01-01T19:37:52.652Z,35.50
2023-01-01T19:41:56.772Z,21.03
2023-01-01T19:46:00.875Z,10.73
2023-01-01T19:50:03.636Z,12.83
2023-01-01T19:54:07.114Z,10.63
2023-01-01T19:58:10.229Z,10.37
2023-01-01T20:06:37.866Z,13.30
2023-01-01T20:10:40.602Z,11.07
2023-01-01T20:14:45.767Z,9.23
2023-01-01T20:18:50.073Z,12.30
2023-01-01T20:22:52.886Z,14.17
2023-01-01T20:26:56.525Z,9.23
2023-01-01T20:30:59.247Z,11.47
2023-01-01T20:35:03.367Z,11.10
2023-01-01T20:39:06.371Z,9.40
2023-01-01T20:43:08.998Z,9.43
2023-01-01T20:47:11.831Z,12.13
2023-01-01T20:51:15.982Z,12.30
2023-01-01T20:55:18.765Z,12.67
2023-01-01T20:59:39.001Z,9.80
2023-01-01T21:03:41.838Z,12.33
2023-01-01T21:07:45.910Z,13.43
2023-01-01T21:11:48.695Z,17.60
2023-01-01T21:15:52.578Z,10.57
2023-01-01T21:19:57.179Z,10.87
2023-01-01T21:24:07.252Z,14.30
2023-01-01T21:28:13.549Z,12.77
2023-01-01T21:32:21.484Z,12.67
2023-01-01T21:36:25.011Z,12.23
2023-01-01T21:40:36.180Z,11.27
2023-01-01T21:44:38.883Z,12.93
2023-01-01T21:48:43.481Z,11.17
2023-01-01T21:52:47.693Z,13.93
2023-01-01T21:56:54.886Z,9.90
2023-01-01T22:00:58.125Z,11.90
2023-01-01T22:05:02.235Z,11.10
2023-01-01T22:09:12.771Z,10.83
2023-01-01T22:13:19.082Z,11.00
2023-01-01T22:17:24.304Z,8.47
2023-01-01T22:21:27.604Z,8.00
2023-01-01T22:25:31.605Z,8.90
2023-01-01T22:29:35.891Z,8.50
2023-01-01T22:33:40.741Z,8.23
2023-01-01T22:37:43.923Z,8.40
2023-01-01T22:41:46.961Z,9.33
2023-01-01T22:45:51.199Z,9.67
2023-01-01T22:49:53.931Z,8.60
2023-01-01T22:53:56.594Z,8.53
2023-01-01T22:57:59.230Z,10.03
2023-01-01T23:02:03.869Z,10.83
2023-01-01T23:06:06.924Z,15.30
2023-01-01T23:10:11.465Z,20.83
2023-01-01T23:14:36.926Z,18.27
2023-01-01T23:18:43.032Z,17.60
2023-01-01T23:22:48.030Z,17.50
2023-01-01T23:26:51.616Z,10.07
2023-01-01T23:30:54.778Z,6.73
2023-01-01T23:34:59.232Z,8.30
2023-01-01T23:39:02.210Z,9.20
2023-01-01T23:43:04.874Z,14.83
2023-01-01T23:47:07.810Z,20.40
2023-01-01T23:51:12.284Z,12.93
2023-01-01T23:55:15.427Z,6.67
2023-01-01T23:59:18.086Z,7.40
